Time;durP1;ratioP1;P1;durP2;ratioP2;P2;SDS_P1;SDS_P2;PMS_P1;PMS_P2;Temp;Humidity;BMP_temperature;BMP_pressure;BME280_temperature;BME280_humidity;BME280_pressure;Samples;Min_cycle;Max_cycle;Signal;HPM_P1;HPM_P2
2024/03/17 00:00:27;;;;;;;16.50;6.88;;;;;;;3.34;100.00;68760.97;5110535;28;20455;-46
2024/03/17 00:02:53;;;;;;;13.10;6.68;;;;;;;3.36;100.00;68760.72;5114510;28;20087;-46
2024/03/17 00:05:20;;;;;;;12.55;7.30;;;;;;;3.36;100.00;68756.13;5112237;28;20171;-46
2024/03/17 00:07:51;;;;;;;14.75;7.15;;;;;;;3.35;100.00;68757.56;5111563;28;20048;-49
2024/03/17 00:10:19;;;;;;;13.60;6.88;;;;;;;3.37;100.00;68761.88;5113988;28;20122;-47
2024/03/17 00:12:45;;;;;;;13.30;7.47;;;;;;;3.39;100.00;68764.19;5097599;28;20043;-48
2024/03/17 00:15:14;;;;;;;14.23;7.15;;;;;;;3.38;100.00;68763.63;5113804;28;20055;-48
2024/03/17 00:17:40;;;;;;;12.93;6.95;;;;;;;3.38;100.00;68763.03;5111351;28;20054;-48
2024/03/17 00:20:18;;;;;;;18.20;7.53;;;;;;;3.39;100.00;68759.03;5112850;28;20092;-48
2024/03/17 00:22:46;;;;;;;12.68;6.80;;;;;;;3.38;100.00;68761.03;5111656;28;20043;-46
2024/03/17 00:25:14;;;;;;;11.95;7.00;;;;;;;3.38;100.00;68760.44;5111032;28;20065;-50
2024/03/17 00:27:43;;;;;;;15.80;7.70;;;;;;;3.38;100.00;68763.03;5114454;28;20547;-48
2024/03/17 00:30:12;;;;;;;13.48;7.13;;;;;;;3.39;100.00;68759.03;5114241;28;20048;-49
2024/03/17 00:32:39;;;;;;;13.65;6.72;;;;;;;3.40;100.00;68762.22;5114414;28;20491;-49
2024/03/17 00:35:07;;;;;;;16.77;7.55;;;;;;;3.39;100.00;68759.03;5114203;28;20039;-49
2024/03/17 00:37:34;;;;;;;14.38;6.93;;;;;;;3.38;100.00;68763.63;5114129;28;20126;-49
2024/03/17 00:40:01;;;;;;;14.52;7.47;;;;;;;3.38;100.00;68760.44;5114230;28;20050;-48
2024/03/17 00:42:29;;;;;;;13.43;7.28;;;;;;;3.38;100.00;68763.63;5114299;28;20039;-47
2024/03/17 00:44:59;;;;;;;13.05;8.40;;;;;;;3.40;100.00;68762.22;5113913;28;20096;-49
2024/03/17 00:47:25;;;;;;;14.43;7.82;;;;;;;3.39;100.00;68761.63;5113934;28;20056;-50
2024/03/17 00:49:52;;;;;;;14.88;7.65;;;;;;;3.37;100.00;68765.03;5110137;28;20059;-49
2024/03/17 00:52:19;;;;;;;13.55;7.53;;;;;;;3.39;100.00;68761.63;5110484;28;20964;-47
2024/03/17 00:54:48;;;;;;;17.42;8.20;;;;;;;3.36;100.00;68758.13;5113996;28;20047;-51
2024/03/17 00:57:14;;;;;;;14.02;7.57;;;;;;;3.40;100.00;68762.22;5114041;28;20044;-50
2024/03/17 00:59:44;;;;;;;14.13;7.82;;;;;;;3.37;100.00;68761.88;5113728;28;20116;-48
2024/03/17 01:02:12;;;;;;;14.52;7.65;;;;;;;3.35;100.00;68756.97;5113430;28;20516;-47
2024/03/17 01:04:40;;;;;;;14.02;7.72;;;;;;;3.34;100.00;68755.81;5110536;28;20398;-47
2024/03/17 01:07:06;;;;;;;15.73;7.88;;;;;;;3.32;100.00;68756.66;5109078;28;20088;-47
2024/03/17 01:09:34;;;;;;;15.20;7.93;;;;;;;3.32;100.00;68754.06;5093248;28;20051;-49
2024/03/17 01:12:00;;;;;;;15.55;8.68;;;;;;;3.30;100.00;68753.75;5109884;28;20040;-53
2024/03/17 01:14:28;;;;;;;13.93;8.45;;;;;;;3.29;100.00;68752.59;5109699;28;20416;-50
2024/03/17 01:16:56;;;;;;;13.63;8.40;;;;;;;3.30;100.00;68748.59;5092182;28;20047;-48
2024/03/17 01:19:23;;;;;;;17.23;9.00;;;;;;;3.27;100.00;68748.25;5109890;28;20040;-48
2024/03/17 01:21:52;;;;;;;17.63;9.32;;;;;;;3.27;100.00;68750.84;5109583;28;20032;-48
2024/03/17 01:24:19;;;;;;;17.73;9.18;;;;;;;3.28;100.00;68752.00;5113438;28;20048;-48
2024/03/17 01:26:49;;;;;;;17.33;8.88;;;;;;;3.27;100.00;68748.25;5094899;28;20052;-48
2024/03/17 01:29:16;;;;;;;13.77;8.95;;;;;;;3.26;100.00;68744.53;5110203;28;20565;-50
2024/03/17 01:31:42;;;;;;;16.02;9.07;;;;;;;3.25;100.00;68745.94;5112862;28;20441;-48
2024/03/17 01:34:11;;;;;;;18.63;9.05;;;;;;;3.25;100.00;68747.97;5111919;28;20517;-47
2024/03/17 01:36:37;;;;;;;15.25;9.25;;;;;;;3.22;100.00;68745.63;5108786;28;20046;-49
2024/03/17 01:39:05;;;;;;;16.27;9.23;;;;;;;3.22;100.00;68745.06;5109571;28;20169;-50
2024/03/17 01:41:31;;;;;;;16.95;9.55;;;;;;;3.20;100.00;68743.31;5109835;28;20073;-49
2024/03/17 01:43:58;;;;;;;17.52;9.18;;;;;;;3.18;100.00;68738.41;5109245;28;20103;-49
2024/03/17 01:46:25;;;;;;;15.43;9.07;;;;;;;3.17;100.00;68739.25;5109383;28;20047;-50
2024/03/17 01:48:52;;;;;;;15.85;8.70;;;;;;;3.16;100.00;68736.09;5110172;28;20051;-50
2024/03/17 01:51:20;;;;;;;16.17;8.55;;;;;;;3.16;100.00;68738.69;5112734;28;20442;-49
2024/03/17 01:53:47;;;;;;;15.45;8.93;;;;;;;3.14;100.00;68733.78;5112792;28;20043;-48
2024/03/17 01:56:15;;;;;;;15.40;8.25;;;;;;;3.13;100.00;68732.59;5093508;28;20827;-48
2024/03/17 01:58:45;;;;;;;11.93;7.50;;;;;;;3.13;100.00;68734.63;5109520;28;20055;-48
2024/03/17 02:01:14;;;;;;;15.98;8.65;;;;;;;3.13;100.00;68734.63;5109396;28;20524;-48
2024/03/17 02:03:41;;;;;;;17.20;8.70;;;;;;;3.11;100.00;68727.13;5110021;28;20101;-49
2024/03/17 02:06:09;;;;;;;18.40;9.05;;;;;;;3.09;100.00;68729.97;5112466;28;20045;-48
2024/03/17 02:08:51;;;;;;;16.50;8.32;;;;;;;3.09;100.00;68729.97;5112207;28;20059;-47
2024/03/17 02:11:29;;;;;;;15.30;8.20;;;;;;;3.09;100.00;68727.97;5112175;28;20471;-47
2024/03/17 02:13:56;;;;;;;13.07;7.80;;;;;;;3.09;100.00;68729.97;5108984;28;20537;-48
2024/03/17 02:16:26;;;;;;;14.95;8.20;;;;;;;3.08;100.00;68729.41;5109278;28;20100;-48
2024/03/17 02:18:55;;;;;;;14.55;8.35;;;;;;;3.06;100.00;68723.91;5110915;28;20047;-47
2024/03/17 02:21:24;;;;;;;15.50;8.48;;;;;;;3.05;100.00;68720.75;5112028;28;20066;-48
2024/03/17 02:23:52;;;;;;;12.65;8.02;;;;;;;3.03;100.00;68724.16;5111700;28;20040;-50
2024/03/17 02:26:20;;;;;;;13.50;8.30;;;;;;;3.02;100.00;68717.84;5111481;28;20062;-51
2024/03/17 02:28:47;;;;;;;15.95;8.38;;;;;;;3.00;100.00;68714.94;5112090;28;20047;-49
2024/03/17 02:31:16;;;;;;;16.10;8.25;;;;;;;3.00;100.00;68714.94;5111967;28;20175;-49
2024/03/17 02:33:43;;;;;;;15.07;8.15;;;;;;;2.99;100.00;68716.38;5111667;28;20035;-46
2024/03/17 02:36:11;;;;;;;14.55;7.65;;;;;;;2.96;100.00;68716.06;5111495;28;20043;-49
2024/03/17 02:41:25;;;;;;;13.13;7.82;;;;;;;2.96;100.00;68718.03;5111765;28;20040;-47
2024/03/17 02:43:53;;;;;;;14.38;8.15;;;;;;;2.96;100.00;68712.88;5111754;28;20042;-49
2024/03/17 02:46:20;;;;;;;15.43;7.55;;;;;;;2.95;100.00;68714.31;5111776;28;20052;-50
2024/03/17 02:48:52;;;;;;;13.27;7.55;;;;;;;2.94;100.00;68713.72;5111608;28;20044;-49
2024/03/17 02:51:21;;;;;;;11.95;7.60;;;;;;;2.95;100.00;68716.91;5111336;28;20144;-48
2024/03/17 02:53:49;;;;;;;14.88;7.65;;;;;;;2.95;100.00;68714.88;5111529;28;20051;-48
2024/03/17 02:56:17;;;;;;;16.13;8.52;;;;;;;2.95;100.00;68711.75;5111538;28;20050;-48
2024/03/17 02:58:47;;;;;;;13.60;7.63;;;;;;;2.95;100.00;68714.88;5111609;28;20050;-51
2024/03/17 03:01:15;;;;;;;16.63;7.80;;;;;;;2.99;100.00;68716.94;5108312;28;20055;-49
2024/03/17 03:03:43;;;;;;;15.05;7.95;;;;;;;3.00;100.00;68717.53;5107980;28;20047;-48
2024/03/17 03:06:11;;;;;;;14.95;7.95;;;;;;;3.02;100.00;68719.84;5107061;28;20529;-49
2024/03/17 03:08:40;;;;;;;15.30;7.97;;;;;;;3.04;100.00;68724.75;5108121;28;20113;-50
2024/03/17 03:11:12;;;;;;;12.98;8.48;;;;;;;3.07;100.00;68725.66;5107796;28;20074;-49
2024/03/17 03:13:39;;;;;;;13.43;8.48;;;;;;;3.10;100.00;68729.13;5108103;28;20036;-50
2024/03/17 03:16:09;;;;;;;12.88;8.57;;;;;;;3.11;100.00;68732.88;5107767;28;20050;-48
2024/03/17 03:18:36;;;;;;;13.27;8.18;;;;;;;3.12;100.00;68730.88;5107886;28;20051;-48
2024/03/17 03:21:03;;;;;;;12.35;7.78;;;;;;;3.13;100.00;68732.59;5106427;28;20058;-52
2024/03/17 03:23:31;;;;;;;15.07;8.50;;;;;;;3.16;100.00;68733.53;5109412;28;20055;-48
2024/03/17 03:25:59;;;;;;;17.35;8.70;;;;;;;3.18;100.00;68737.84;5108500;28;20464;-48
2024/03/17 03:28:27;;;;;;;17.55;8.68;;;;;;;3.20;100.00;68738.16;5108033;28;20058;-49
2024/03/17 03:30:56;;;;;;;15.20;8.43;;;;;;;3.22;100.00;68745.06;5110528;28;20058;-49
2024/03/17 03:33:25;;;;;;;16.55;7.85;;;;;;;3.24;100.00;68744.22;5093745;28;20044;-48
2024/03/17 03:35:52;;;;;;;13.48;8.23;;;;;;;3.27;100.00;68748.25;5110655;28;20410;-47
2024/03/17 03:38:19;;;;;;;16.05;9.02;;;;;;;3.31;100.00;68752.34;5108343;28;20096;-48
2024/03/17 03:40:47;;;;;;;12.93;8.65;;;;;;;3.32;100.00;68753.50;5106875;28;20039;-50
2024/03/17 03:43:17;;;;;;;14.95;8.10;;;;;;;3.34;100.00;68758.38;5107732;28;20038;-48
2024/03/17 03:45:45;;;;;;;16.50;8.27;;;;;;;3.36;100.00;68760.72;5110624;28;20514;-48
2024/03/17 03:48:13;;;;;;;12.18;7.82;;;;;;;3.41;100.00;68763.34;5093537;28;20055;-48
2024/03/17 03:50:44;;;;;;;12.23;8.10;;;;;;;3.43;100.00;68768.84;5107508;28;20040;-47
2024/03/17 03:53:11;;;;;;;13.55;8.10;;;;;;;3.47;100.00;68772.91;5106746;28;20402;-47
2024/03/17 03:55:39;;;;;;;15.35;8.77;;;;;;;3.48;100.00;68776.66;5110579;28;20228;-46
2024/03/17 03:58:06;;;;;;;18.33;8.95;;;;;;;3.53;100.00;68782.44;5110530;28;20104;-47
2024/03/17 04:00:34;;;;;;;13.35;8.35;;;;;;;3.54;100.00;68778.44;5110507;28;20039;-47
2024/03/17 04:03:01;;;;;;;14.98;8.27;;;;;;;3.57;100.00;68781.91;5110421;28;20043;-46
2024/03/17 04:05:29;;;;;;;14.63;9.23;;;;;;;3.60;100.00;68782.25;5110582;28;20047;-47
2024/03/17 04:07:58;;;;;;;13.80;8.60;;;;;;;3.63;100.00;68788.88;5110295;28;20036;-49
2024/03/17 04:10:25;;;;;;;15.57;9.95;;;;;;;3.64;100.00;68792.03;5093424;28;20052;-47
2024/03/17 04:12:53;;;;;;;15.70;8.98;;;;;;;3.66;100.00;68794.94;5110364;28;20040;-47
2024/03/17 04:15:21;;;;;;;16.80;8.38;;;;;;;3.70;100.00;68796.44;5110523;28;20513;-46
2024/03/17 04:17:48;;;;;;;14.32;8.50;;;;;;;3.73;100.00;68800.47;5110438;28;20043;-46
2024/03/17 04:20:16;;;;;;;16.52;8.80;;;;;;;3.77;100.00;68796.81;5093437;28;20169;-46
2024/03/17 04:22:43;;;;;;;14.52;8.15;;;;;;;3.78;100.00;68803.13;5093353;28;20032;-46
2024/03/17 04:25:14;;;;;;;14.93;8.73;;;;;;;3.80;100.00;68807.44;5110258;28;20035;-49
2024/03/17 04:27:41;;;;;;;13.77;8.20;;;;;;;3.81;100.00;68809.19;5110497;28;20043;-50
2024/03/17 04:30:11;;;;;;;12.13;7.85;;;;;;;3.83;100.00;68811.53;5110455;28;20044;-49
2024/03/17 04:32:39;;;;;;;14.80;8.27;;;;;;;3.87;100.00;68818.16;5110611;28;20031;-49
2024/03/17 04:35:06;;;;;;;11.88;8.20;;;;;;;3.90;100.00;68819.06;5106339;28;20122;-49
2024/03/17 04:37:38;;;;;;;15.30;8.35;;;;;;;3.90;100.00;68821.66;5107427;28;20056;-49
2024/03/17 04:40:09;;;;;;;14.40;9.82;;;;;;;3.96;100.00;68825.44;5110580;28;20054;-48
2024/03/17 04:42:38;;;;;;;13.70;9.07;;;;;;;3.97;100.00;68831.78;5110199;28;20483;-48
2024/03/17 04:45:09;;;;;;;13.75;8.98;;;;;;;3.99;100.00;68826.91;5110424;28;20051;-49
2024/03/17 04:47:37;;;;;;;14.73;8.40;;;;;;;4.00;100.00;68827.50;5107616;28;20109;-52
2024/03/17 04:50:05;;;;;;;13.38;9.20;;;;;;;4.02;100.00;68832.41;5109013;28;20047;-51
2024/03/17 04:52:33;;;;;;;18.25;10.73;;;;;;;4.02;100.00;68835.00;5110897;28;20047;-47
2024/03/17 04:55:00;;;;;;;14.85;9.07;;;;;;;4.04;100.00;68837.91;5111855;28;20123;-51
2024/03/17 04:57:27;;;;;;;14.73;8.65;;;;;;;4.07;100.00;68840.78;5113807;28;20048;-50
2024/03/17 04:59:56;;;;;;;14.98;9.10;;;;;;;4.11;100.00;68848.03;5113837;28;20040;-48
2024/03/17 05:02:23;;;;;;;14.93;9.55;;;;;;;4.12;100.00;68848.59;5113596;28;20487;-50
2024/03/17 05:04:50;;;;;;;12.65;8.52;;;;;;;4.12;100.00;68846.00;5113879;28;20059;-48
2024/03/17 05:07:17;;;;;;;13.85;8.85;;;;;;;4.12;100.00;68846.59;5112173;28;20043;-48
2024/03/17 05:09:45;;;;;;;14.23;8.35;;;;;;;4.11;100.00;68842.28;5110831;28;20043;-48
2024/03/17 05:12:12;;;;;;;12.90;8.77;;;;;;;4.11;100.00;68842.28;5112564;28;20048;-51
2024/03/17 05:14:39;;;;;;;17.70;9.20;;;;;;;4.09;100.00;68840.53;5113047;28;20040;-51
2024/03/17 05:17:07;;;;;;;13.10;9.30;;;;;;;4.09;100.00;68843.13;5110192;28;20051;-51
2024/03/17 05:19:35;;;;;;;14.45;8.85;;;;;;;4.09;100.00;68840.53;5110561;28;20036;-47
2024/03/17 05:22:02;;;;;;;13.23;9.45;;;;;;;4.11;100.00;68839.72;5113385;28;20039;-48
2024/03/17 05:24:29;;;;;;;13.95;9.57;;;;;;;4.12;100.00;68840.84;5111505;28;20047;-48
2024/03/17 05:26:56;;;;;;;15.13;9.57;;;;;;;4.12;100.00;68844.03;5110321;28;20055;-48
2024/03/17 05:29:23;;;;;;;14.88;9.05;;;;;;;4.16;100.00;68850.66;5110391;28;20050;-51
2024/03/17 05:31:51;;;;;;;14.85;9.77;;;;;;;4.15;100.00;68846.94;5110798;28;20405;-49
2024/03/17 05:34:19;;;;;;;15.30;9.75;;;;;;;4.15;100.00;68844.91;5112933;28;20084;-48
2024/03/17 05:36:46;;;;;;;15.90;9.50;;;;;;;4.15;100.00;68850.09;5113193;28;20532;-50
2024/03/17 05:39:14;;;;;;;15.82;10.18;;;;;;;4.15;100.00;68852.66;5110654;28;20043;-47
2024/03/17 05:41:43;;;;;;;16.13;10.60;;;;;;;4.17;100.00;68849.25;5110097;28;20490;-49
2024/03/17 05:44:10;;;;;;;16.25;10.88;;;;;;;4.19;100.00;68854.16;5109752;28;20039;-48
2024/03/17 05:46:37;;;;;;;15.18;10.32;;;;;;;4.20;100.00;68852.75;5110308;28;20048;-49
2024/03/17 05:49:06;;;;;;;14.75;10.27;;;;;;;4.20;100.00;68850.16;5112936;28;20046;-50
2024/03/17 05:51:35;;;;;;;15.02;10.55;;;;;;;4.22;100.00;68855.63;5095817;28;20522;-48
2024/03/17 05:54:04;;;;;;;16.88;11.00;;;;;;;4.23;100.00;68854.22;5110664;28;20035;-48
2024/03/17 05:56:31;;;;;;;16.20;10.80;;;;;;;4.26;100.00;68859.13;5109861;28;20051;-49
2024/03/17 05:58:58;;;;;;;17.63;11.00;;;;;;;4.27;100.00;68862.84;5108964;28;20133;-49
2024/03/17 06:01:25;;;;;;;18.40;11.32;;;;;;;4.26;100.00;68859.13;5110395;28;20036;-49
2024/03/17 06:03:52;;;;;;;16.55;11.05;;;;;;;4.27;100.00;68860.25;5110829;28;20078;-48
2024/03/17 06:06:20;;;;;;;17.77;11.25;;;;;;;4.27;100.00;68860.25;5109179;28;20044;-49
2024/03/17 06:08:49;;;;;;;18.90;11.60;;;;;;;4.28;100.00;68864.59;5108958;28;20043;-53
2024/03/17 06:11:16;;;;;;;16.77;11.73;;;;;;;4.31;100.00;68868.09;5109521;28;20789;-51
2024/03/17 06:13:43;;;;;;;18.05;11.32;;;;;;;4.40;100.00;68875.38;5112265;28;20490;-50
2024/03/17 06:16:10;;;;;;;18.70;11.55;;;;;;;4.37;100.00;68872.47;5110977;28;20095;-49
2024/03/17 06:18:37;;;;;;;20.42;11.88;;;;;;;4.37;100.00;68871.88;5109096;28;20039;-51
2024/03/17 06:21:09;;;;;;;18.67;12.00;;;;;;;4.38;100.00;68876.22;5111560;28;20052;-52
2024/03/17 06:23:36;;;;;;;17.35;11.38;;;;;;;4.38;100.00;68875.63;5112030;28;20035;-53
2024/03/17 06:26:05;;;;;;;19.02;12.65;;;;;;;4.39;100.00;68877.38;5112146;28;20043;-48
2024/03/17 06:28:32;;;;;;;18.25;11.25;;;;;;;4.40;100.00;68877.94;5112051;28;20043;-50
2024/03/17 06:31:01;;;;;;;22.08;12.95;;;;;;;4.40;100.00;68875.38;5094734;28;20052;-49
2024/03/17 06:33:29;;;;;;;17.35;11.55;;;;;;;4.50;100.00;68887.00;5111436;28;20039;-49
2024/03/17 06:35:56;;;;;;;21.42;13.18;;;;;;;4.54;100.00;68893.63;5111541;28;20067;-48
2024/03/17 06:38:24;;;;;;;17.27;12.32;;;;;;;4.56;100.00;68895.97;5091550;28;20051;-49
2024/03/17 06:40:51;;;;;;;20.13;12.05;;;;;;;4.62;100.00;68902.94;5109006;28;20522;-49
2024/03/17 06:43:20;;;;;;;17.88;12.43;;;;;;;4.66;100.00;68905.00;5108311;28;20153;-48
2024/03/17 06:45:58;;;;;;;18.45;11.95;;;;;;;4.74;100.00;68913.69;5108564;28;20039;-49
2024/03/17 06:48:25;;;;;;;19.80;12.30;;;;;;;4.81;100.00;68921.81;5109041;28;20044;-49
2024/03/17 06:50:54;;;;;;;18.42;11.68;;;;;;;4.87;100.00;68928.22;5107319;28;20589;-49
2024/03/17 06:53:21;;;;;;;19.42;12.90;;;;;;;4.95;100.00;68934.94;5111638;28;20042;-49
2024/03/17 06:55:55;;;;;;;18.92;11.90;;;;;;;5.08;100.00;68952.03;5111302;28;20039;-49
2024/03/17 06:58:26;;;;;;;18.23;12.18;;;;;;;5.12;100.00;68956.09;5111723;28;20383;-49
2024/03/17 07:00:59;;;;;;;19.52;12.50;;;;;;;5.22;100.00;68968.31;5111722;28;20043;-48
2024/03/17 07:03:26;;;;;;;19.02;12.48;;;;;;;5.38;100.00;68985.75;5094472;28;20048;-48
2024/03/17 07:05:54;;;;;;;18.90;12.63;;;;;;;5.47;100.00;68998.19;5094379;28;20043;-50
2024/03/17 07:08:22;;;;;;;20.25;12.50;;;;;;;5.56;100.00;69006.66;5110326;28;20126;-50
2024/03/17 07:11:00;;;;;;;21.75;13.70;;;;;;;5.69;100.00;69023.78;5107441;28;20537;-48
2024/03/17 07:13:29;;;;;;;20.00;13.40;;;;;;;5.83;100.00;69039.47;5108281;28;20126;-49
2024/03/17 07:15:57;;;;;;;19.05;12.00;;;;;;;6.00;100.00;69050.31;5110632;28;20059;-49
2024/03/17 07:18:26;;;;;;;16.42;12.20;;;;;;;6.12;100.00;69071.47;5111299;28;20115;-50
2024/03/17 07:20:53;;;;;;;18.35;11.50;;;;;;;6.19;100.00;69077.63;5111068;28;20049;-49
2024/03/17 07:23:20;;;;;;;16.42;11.73;;;;;;;6.20;100.00;69075.59;5111249;28;20123;-47
2024/03/17 07:25:54;;;;;;;18.55;11.98;;;;;;;6.25;100.00;69086.59;5108706;28;20047;-48
2024/03/17 07:28:22;;;;;;;15.75;11.23;;;;;;;6.34;100.00;69093.88;5108101;28;20497;-48
2024/03/17 07:30:52;;;;;;;17.17;11.15;;;;;;;6.41;100.00;69102.03;5090708;28;20829;-48
2024/03/17 07:33:21;;;;;;;18.23;12.50;;;;;;;6.42;100.00;69103.19;5108783;28;20040;-50
2024/03/17 07:35:52;;;;;;;17.00;11.77;;;;;;;6.44;100.00;69108.13;5110951;28;20057;-49
2024/03/17 07:38:20;;;;;;;17.77;11.93;;;;;;;6.51;100.00;69113.09;5111110;28;20043;-48
2024/03/17 07:40:57;;;;;;;15.50;10.88;;;;;;;6.60;100.00;69126.72;5107652;28;20043;-47
2024/03/17 07:43:28;;;;;;;15.07;10.43;;;;;;;6.66;100.00;69127.38;5092008;28;20047;-48
2024/03/17 07:46:01;;;;;;;16.15;10.95;;;;;;;6.70;100.00;69132.03;5108952;28;20043;-49
2024/03/17 07:48:29;;;;;;;17.95;12.07;;;;;;;6.80;100.00;69148.84;5107919;28;20081;-52
2024/03/17 07:50:57;;;;;;;17.70;9.95;;;;;;;6.99;100.00;69167.19;5109441;28;20067;-50
2024/03/17 07:53:27;;;;;;;14.60;9.35;;;;;;;7.15;100.00;69185.81;5110858;28;20505;-51
2024/03/17 07:56:01;;;;;;;15.13;9.00;;;;;;;7.25;100.00;69197.47;5107273;28;20056;-53
2024/03/17 07:58:28;;;;;;;13.63;8.07;;;;;;;7.32;100.00;69204.44;5109094;28;20047;-53
2024/03/17 08:01:01;;;;;;;14.15;8.27;;;;;;;7.43;100.00;69217.22;5110765;28;20092;-49
2024/03/17 08:03:29;;;;;;;14.85;8.68;;;;;;;7.61;100.00;69238.19;5107901;28;20677;-47
2024/03/17 08:05:57;;;;;;;14.75;8.80;;;;;;;7.70;100.00;69248.09;5105608;28;20728;-50
2024/03/17 08:08:24;;;;;;;11.52;7.65;;;;;;;7.81;100.00;69262.91;5110480;28;20414;-51
2024/03/17 08:10:52;;;;;;;11.35;7.65;;;;;;;7.95;100.00;69274.03;5110491;28;20534;-46
2024/03/17 08:13:19;;;;;;;12.57;7.47;;;;;;;8.04;100.00;69286.53;5110186;28;20061;-46
2024/03/17 08:15:47;;;;;;;11.73;7.38;;;;;;;8.21;100.00;69303.16;5107445;28;20043;-46
2024/03/17 08:18:16;;;;;;;10.80;6.97;;;;;;;8.41;100.00;69328.47;5107312;28;20047;-46
2024/03/17 08:20:44;;;;;;;12.70;7.35;;;;;;;8.57;100.00;69349.16;5093347;28;20059;-46
2024/03/17 08:23:12;;;;;;;10.80;6.90;;;;;;;8.62;100.00;69352.38;5113234;28;20374;-46
2024/03/17 08:25:39;;;;;;;11.95;6.43;;;;;;;8.67;100.00;69359.63;5114424;28;20047;-48
2024/03/17 08:28:07;;;;;;;10.93;6.68;;;;;;;8.77;100.00;69377.09;5114590;28;20040;-47
2024/03/17 08:30:35;;;;;;;11.57;6.90;;;;;;;8.81;100.00;69375.97;5114319;28;20494;-47
2024/03/17 08:33:02;;;;;;;9.90;6.10;;;;;;;8.89;100.00;69382.09;5114345;28;20050;-45
2024/03/17 08:35:30;;;;;;;9.82;5.97;;;;;;;8.95;100.00;69394.88;5114494;28;20440;-47
2024/03/17 08:37:59;;;;;;;10.80;5.47;;;;;;;9.03;100.00;69398.41;5112961;28;20088;-45
2024/03/17 08:40:26;;;;;;;9.05;5.63;;;;;;;9.08;100.00;69404.25;5111725;28;20046;-46
2024/03/17 08:42:53;;;;;;;10.70;4.93;;;;;;;9.22;100.00;69422.00;5112777;28;20039;-47
2024/03/17 08:45:20;;;;;;;11.88;5.55;;;;;;;9.21;100.00;69418.81;5114197;28;20050;-47
2024/03/17 08:47:52;;;;;;;9.57;5.20;;;;;;;9.29;100.00;69424.97;5113914;28;20065;-47
2024/03/17 08:50:19;;;;;;;11.00;5.35;;;;;;;9.32;100.00;69428.47;5111617;28;20051;-46
2024/03/17 08:52:48;;;;;;;9.25;5.70;;;;;;;9.35;100.00;69434.56;5110564;28;20043;-47
2024/03/17 08:55:15;;;;;;;8.93;5.03;;;;;;;9.41;100.00;69441.56;5112819;28;20044;-48
2024/03/17 08:57:42;;;;;;;8.30;5.07;;;;;;;9.45;100.00;69448.25;5113760;28;20529;-47
2024/03/17 09:00:10;;;;;;;9.07;5.25;;;;;;;9.48;100.00;69447.09;5113745;28;20423;-47
2024/03/17 09:02:38;;;;;;;9.70;5.35;;;;;;;9.50;100.00;69453.50;5113831;28;20039;-46
2024/03/17 09:05:05;;;;;;;9.70;5.38;;;;;;;9.59;100.00;69456.19;5113504;28;20039;-47
2024/03/17 09:07:32;;;;;;;10.35;5.50;;;;;;;9.68;100.00;69471.28;5113724;28;20046;-46
2024/03/17 09:10:01;;;;;;;10.02;5.10;;;;;;;9.74;100.00;69481.47;5113669;28;20049;-47
2024/03/17 09:12:28;;;;;;;9.57;5.22;;;;;;;9.85;100.00;69485.91;5113702;28;20040;-46
2024/03/17 09:14:55;;;;;;;9.82;5.32;;;;;;;9.81;100.00;69489.63;5113294;28;20088;-46
2024/03/17 09:17:21;;;;;;;9.90;5.45;;;;;;;9.90;100.00;69491.16;5112197;28;20048;-47
2024/03/17 09:19:49;;;;;;;8.40;5.13;;;;;;;9.91;100.00;69495.53;5109911;28;20049;-48
2024/03/17 09:22:18;;;;;;;9.00;5.28;;;;;;;10.00;100.00;69504.84;5111603;28;20055;-46
2024/03/17 09:24:47;;;;;;;9.60;5.93;;;;;;;10.06;100.00;69515.03;5095982;28;20035;-46
2024/03/17 09:27:18;;;;;;;10.18;5.60;;;;;;;10.12;100.00;69521.47;5113158;28;20044;-46
2024/03/17 09:29:47;;;;;;;10.38;5.53;;;;;;;10.19;100.00;69529.06;5113192;28;20047;-47
2024/03/17 09:32:17;;;;;;;10.77;5.68;;;;;;;10.24;100.00;69543.28;5113031;28;20039;-46
2024/03/17 09:34:48;;;;;;;9.82;5.40;;;;;;;10.38;100.00;69545.44;5112237;28;20140;-47
2024/03/17 09:37:16;;;;;;;12.38;5.93;;;;;;;10.38;100.00;69551.22;5113086;28;20077;-46
2024/03/17 09:39:48;;;;;;;12.45;6.43;;;;;;;10.42;100.00;69555.31;5113156;28;20051;-47
2024/03/17 09:42:19;;;;;;;10.25;5.50;;;;;;;10.44;100.00;69560.84;5112820;28;20050;-50
2024/03/17 09:44:48;;;;;;;10.50;5.88;;;;;;;10.40;100.00;69550.38;5112649;28;20044;-49
2024/03/17 09:47:20;;;;;;;8.77;5.85;;;;;;;10.42;100.00;69555.91;5112468;28;20426;-50
2024/03/17 09:49:48;;;;;;;9.35;5.35;;;;;;;10.44;100.00;69555.03;5112680;28;20047;-49
2024/03/17 09:52:22;;;;;;;11.15;6.07;;;;;;;10.41;100.00;69554.16;5095462;28;20130;-51
2024/03/17 09:54:58;;;;;;;11.02;5.75;;;;;;;10.47;100.00;69559.13;5112367;28;20390;-47
2024/03/17 09:57:28;;;;;;;10.23;6.50;;;;;;;10.41;100.00;69554.72;5112548;28;20474;-47
2024/03/17 09:59:56;;;;;;;9.45;5.80;;;;;;;10.37;100.00;69544.28;5112338;28;20054;-48
2024/03/17 10:02:23;;;;;;;10.70;5.78;;;;;;;10.47;100.00;69558.53;5112497;28;20046;-47
2024/03/17 10:04:50;;;;;;;10.80;6.15;;;;;;;10.52;100.00;69569.03;5095191;28;20047;-46
2024/03/17 10:07:17;;;;;;;9.60;6.10;;;;;;;10.49;100.00;69558.84;5112331;28;20052;-46
2024/03/17 10:09:45;;;;;;;9.40;5.68;;;;;;;10.45;100.00;69564.63;5095246;28;20075;-45
2024/03/17 10:12:28;;;;;;;10.57;5.85;;;;;;;10.43;100.00;69559.69;5112407;28;20047;-47
2024/03/17 10:15:00;;;;;;;;;;;;;;;10.47;100.00;69559.13;5112744;28;20134;-47
2024/03/17 10:17:33;;;;;;;10.07;6.38;;;;;;;10.46;100.00;69560.00;5112289;28;19931;-47
2024/03/17 10:20:16;;;;;;;10.50;6.93;;;;;;;10.48;100.00;69562.31;5112246;28;20047;-47
2024/03/17 10:23:04;;;;;;;9.90;6.35;;;;;;;10.59;100.00;69575.16;5112171;28;20048;-47
2024/03/17 10:25:33;;;;;;;10.38;5.95;;;;;;;10.56;100.00;69574.25;5112216;28;20044;-47
2024/03/17 10:28:02;;;;;;;10.13;6.00;;;;;;;10.65;100.00;69584.78;5111959;28;20035;-46
2024/03/17 10:30:30;;;;;;;10.77;6.45;;;;;;;10.71;100.00;69585.38;5112079;28;20032;-47
2024/03/17 10:33:00;;;;;;;11.82;6.57;;;;;;;10.75;100.00;69597.88;5109681;28;20440;-49
2024/03/17 10:35:34;;;;;;;10.00;5.97;;;;;;;10.73;100.00;69590.31;5107049;28;20088;-47
2024/03/17 10:38:04;;;;;;;10.13;6.40;;;;;;;10.82;100.00;69598.81;5111564;28;20193;-47
2024/03/17 10:40:32;;;;;;;11.15;6.57;;;;;;;10.92;100.00;69612.53;5111934;28;20134;-47
2024/03/17 10:43:02;;;;;;;13.35;6.28;;;;;;;11.05;100.00;69624.50;5111682;28;20475;-47
2024/03/17 10:45:31;;;;;;;10.68;6.25;;;;;;;10.97;100.00;69612.53;5110916;28;20051;-48
2024/03/17 10:48:01;;;;;;;9.98;6.22;;;;;;;10.93;100.00;69613.09;5111338;28;20417;-47
2024/03/17 10:50:32;;;;;;;9.90;6.28;;;;;;;10.89;100.00;69609.00;5111632;28;20479;-48
2024/03/17 10:53:06;;;;;;;10.60;6.75;;;;;;;11.11;100.00;69630.91;5111643;28;20078;-48
2024/03/17 10:55:44;;;;;;;10.52;5.63;;;;;;;11.22;100.00;69645.78;5111716;28;20063;-46
2024/03/17 10:58:27;;;;;;;9.70;6.05;;;;;;;11.37;100.00;69663.31;5111404;28;20043;-47
2024/03/17 11:00:57;;;;;;;9.27;6.03;;;;;;;11.35;100.00;69658.34;5111417;28;20069;-47
2024/03/17 11:03:25;;;;;;;10.07;6.10;;;;;;;11.23;100.00;69644.91;5111422;28;20054;-48
2024/03/17 11:05:55;;;;;;;10.68;6.40;;;;;;;11.32;100.00;69660.09;5111635;28;20521;-47
2024/03/17 11:08:22;;;;;;;10.82;6.47;;;;;;;11.44;100.00;69673.53;5111412;28;20051;-48
2024/03/17 11:10:52;;;;;;;8.75;5.43;;;;;;;11.42;100.00;69671.75;5111216;28;20448;-46
2024/03/17 11:13:28;;;;;;;10.50;6.00;;;;;;;11.46;100.00;69665.41;5111198;28;20439;-47
2024/03/17 11:15:58;;;;;;;10.23;5.85;;;;;;;11.57;100.00;69683.47;5111141;28;20127;-46
2024/03/17 11:18:38;;;;;;;9.55;5.95;;;;;;;11.55;100.00;69680.53;5111315;28;20040;-49
2024/03/17 11:21:10;;;;;;;10.95;6.85;;;;;;;11.64;100.00;69698.91;5111464;28;20506;-48
2024/03/17 11:23:37;;;;;;;10.55;6.45;;;;;;;11.55;100.00;69681.13;5111119;28;20182;-48
2024/03/17 11:26:06;;;;;;;8.70;5.95;;;;;;;11.38;100.00;69661.28;5111003;28;20036;-49
2024/03/17 11:28:47;;;;;;;9.98;5.43;;;;;;;11.46;100.00;69675.84;5109911;28;20482;-52
2024/03/17 11:31:40;;;;;;;11.93;6.10;;;;;;;11.51;100.00;69673.84;5107919;28;20040;-51
2024/03/17 11:34:36;;;;;;;13.40;6.70;;;;;;;11.40;100.00;69666.81;5107147;28;20035;-52